sensor_id;sensor_type;location;lat;lon;timestamp;temperature;humidity
45619;DHT22;31343;47.520;19.144;2023-05-10T00:01:59;12.50;99.90
45619;DHT22;31343;47.520;19.144;2023-05-10T00:04:25;12.50;99.90
45619;DHT22;31343;47.520;19.144;2023-05-10T00:06:53;12.40;99.90
45619;DHT22;31343;47.520;19.144;2023-05-10T00:09:19;12.40;99.90
45619;DHT22;31343;47.520;19.144;2023-05-10T00:11:45;12.40;99.90
45619;DHT22;31343;47.520;19.144;2023-05-10T00:14:11;12.40;99.90
45619;DHT22;31343;47.520;19.144;2023-05-10T00:16:37;12.40;99.90
45619;DHT22;31343;47.520;19.144;2023-05-10T00:19:03;12.40;99.90
45619;DHT22;31343;47.520;19.144;2023-05-10T00:21:28;12.30;99.90
45619;DHT22;31343;47.520;19.144;2023-05-10T00:23:54;12.30;99.90
45619;DHT22;31343;47.520;19.144;2023-05-10T00:26:20;12.30;99.90
45619;DHT22;31343;47.520;19.144;2023-05-10T00:28:46;12.30;99.90
45619;DHT22;31343;47.520;19.144;2023-05-10T00:31:12;12.30;99.90
45619;DHT22;31343;47.520;19.144;2023-05-10T00:33:38;12.20;99.90
45619;DHT22;31343;47.520;19.144;2023-05-10T00:36:04;12.20;99.90
45619;DHT22;31343;47.520;19.144;2023-05-10T00:38:33;12.20;99.90
45619;DHT22;31343;47.520;19.144;2023-05-10T00:40:59;12.20;99.90
45619;DHT22;31343;47.520;19.144;2023-05-10T00:43:24;12.20;99.90
45619;DHT22;31343;47.520;19.144;2023-05-10T00:45:50;12.20;99.90
45619;DHT22;31343;47.520;19.144;2023-05-10T00:48:16;12.10;99.90
45619;DHT22;31343;47.520;19.144;2023-05-10T00:50:42;12.10;99.90
45619;DHT22;31343;47.520;19.144;2023-05-10T00:53:08;12.10;99.90
45619;DHT22;31343;47.520;19.144;2023-05-10T00:55:34;12.00;99.90
45619;DHT22;31343;47.520;19.144;2023-05-10T00:58:00;12.00;99.90
45619;DHT22;31343;47.520;19.144;2023-05-10T01:00:26;12.00;99.90
45619;DHT22;31343;47.520;19.144;2023-05-10T01:02:56;12.00;99.90
45619;DHT22;31343;47.520;19.144;2023-05-10T01:05:21;12.00;99.90
45619;DHT22;31343;47.520;19.144;2023-05-10T01:07:47;12.00;99.90
45619;DHT22;31343;47.520;19.144;2023-05-10T01:10:13;11.90;99.90
45619;DHT22;31343;47.520;19.144;2023-05-10T01:12:41;11.90;99.90
45619;DHT22;31343;47.520;19.144;2023-05-10T01:15:09;11.90;99.90
45619;DHT22;31343;47.520;19.144;2023-05-10T01:17:38;11.90;99.90
45619;DHT22;31343;47.520;19.144;2023-05-10T01:20:06;11.90;99.90
45619;DHT22;31343;47.520;19.144;2023-05-10T01:23:11;11.90;99.90
45619;DHT22;31343;47.520;19.144;2023-05-10T01:31:59;11.80;99.90
45619;DHT22;31343;47.520;19.144;2023-05-10T01:34:35;11.90;99.90
45619;DHT22;31343;47.520;19.144;2023-05-10T01:37:10;11.90;99.90
45619;DHT22;31343;47.520;19.144;2023-05-10T01:39:45;11.90;99.90
45619;DHT22;31343;47.520;19.144;2023-05-10T01:42:25;11.90;99.90
45619;DHT22;31343;47.520;19.144;2023-05-10T01:44:55;11.90;99.90
45619;DHT22;31343;47.520;19.144;2023-05-10T01:48:17;11.90;99.90
45619;DHT22;31343;47.520;19.144;2023-05-10T01:50:27;12.00;99.90
45619;DHT22;31343;47.520;19.144;2023-05-10T01:52:56;12.10;99.90
45619;DHT22;31343;47.520;19.144;2023-05-10T01:55:27;12.10;99.90
45619;DHT22;31343;47.520;19.144;2023-05-10T01:58:01;12.00;99.90
45619;DHT22;31343;47.520;19.144;2023-05-10T02:00:29;12.00;99.90
45619;DHT22;31343;47.520;19.144;2023-05-10T02:02:55;12.00;99.90
45619;DHT22;31343;47.520;19.144;2023-05-10T02:05:21;12.00;99.90
45619;DHT22;31343;47.520;19.144;2023-05-10T02:07:49;12.10;99.90
45619;DHT22;31343;47.520;19.144;2023-05-10T02:10:16;12.10;99.90
45619;DHT22;31343;47.520;19.144;2023-05-10T02:12:46;12.20;99.90
45619;DHT22;31343;47.520;19.144;2023-05-10T02:15:16;12.10;99.90
45619;DHT22;31343;47.520;19.144;2023-05-10T02:17:43;12.20;99.90
45619;DHT22;31343;47.520;19.144;2023-05-10T02:20:10;12.20;99.90
45619;DHT22;31343;47.520;19.144;2023-05-10T02:22:37;12.20;99.90
45619;DHT22;31343;47.520;19.144;2023-05-10T02:25:04;12.20;99.90
45619;DHT22;31343;47.520;19.144;2023-05-10T02:27:31;12.20;99.90
45619;DHT22;31343;47.520;19.144;2023-05-10T02:29:58;12.20;99.90
45619;DHT22;31343;47.520;19.144;2023-05-10T02:32:25;12.20;99.90
45619;DHT22;31343;47.520;19.144;2023-05-10T02:34:52;12.30;99.90
45619;DHT22;31343;47.520;19.144;2023-05-10T02:37:22;12.20;99.90
45619;DHT22;31343;47.520;19.144;2023-05-10T02:39:49;12.30;99.90
45619;DHT22;31343;47.520;19.144;2023-05-10T02:42:19;12.20;99.90
45619;DHT22;31343;47.520;19.144;2023-05-10T02:44:49;12.40;99.90
45619;DHT22;31343;47.520;19.144;2023-05-10T02:47:17;12.40;99.90
45619;DHT22;31343;47.520;19.144;2023-05-10T02:49:43;12.40;99.90
45619;DHT22;31343;47.520;19.144;2023-05-10T02:52:10;12.40;99.90
45619;DHT22;31343;47.520;19.144;2023-05-10T02:54:48;12.40;99.90
45619;DHT22;31343;47.520;19.144;2023-05-10T02:57:17;12.40;99.90
45619;DHT22;31343;47.520;19.144;2023-05-10T02:59:47;12.40;99.90
45619;DHT22;31343;47.520;19.144;2023-05-10T03:02:13;12.40;99.90
45619;DHT22;31343;47.520;19.144;2023-05-10T03:04:39;12.40;99.90
45619;DHT22;31343;47.520;19.144;2023-05-10T03:07:04;12.40;99.90
45619;DHT22;31343;47.520;19.144;2023-05-10T03:09:31;12.30;99.90
45619;DHT22;31343;47.520;19.144;2023-05-10T03:15:17;12.20;99.90
45619;DHT22;31343;47.520;19.144;2023-05-10T03:18:00;12.20;99.90
45619;DHT22;31343;47.520;19.144;2023-05-10T03:20:36;12.30;99.90
45619;DHT22;31343;47.520;19.144;2023-05-10T03:23:20;12.20;99.90
45619;DHT22;31343;47.520;19.144;2023-05-10T03:25:48;12.20;99.90
45619;DHT22;31343;47.520;19.144;2023-05-10T03:28:16;12.20;99.90
45619;DHT22;31343;47.520;19.144;2023-05-10T03:30:43;12.20;99.90
45619;DHT22;31343;47.520;19.144;2023-05-10T03:33:09;12.20;99.90
45619;DHT22;31343;47.520;19.144;2023-05-10T03:35:36;12.20;99.90
45619;DHT22;31343;47.520;19.144;2023-05-10T03:38:01;12.20;99.90
45619;DHT22;31343;47.520;19.144;2023-05-10T03:40:28;12.10;99.90
45619;DHT22;31343;47.520;19.144;2023-05-10T03:42:57;12.10;99.90
45619;DHT22;31343;47.520;19.144;2023-05-10T03:45:22;12.00;99.90
45619;DHT22;31343;47.520;19.144;2023-05-10T03:47:48;12.00;99.90
45619;DHT22;31343;47.520;19.144;2023-05-10T03:50:14;12.00;99.90
45619;DHT22;31343;47.520;19.144;2023-05-10T03:52:40;12.00;99.90
45619;DHT22;31343;47.520;19.144;2023-05-10T03:55:06;12.10;99.90
45619;DHT22;31343;47.520;19.144;2023-05-10T03:57:32;12.00;99.90
45619;DHT22;31343;47.520;19.144;2023-05-10T03:59:57;12.10;99.90
45619;DHT22;31343;47.520;19.144;2023-05-10T04:02:23;12.20;99.90
45619;DHT22;31343;47.520;19.144;2023-05-10T04:04:49;12.30;99.90
45619;DHT22;31343;47.520;19.144;2023-05-10T04:07:14;12.30;99.90
45619;DHT22;31343;47.520;19.144;2023-05-10T04:09:40;12.40;99.90
45619;DHT22;31343;47.520;19.144;2023-05-10T04:12:06;12.40;99.90
45619;DHT22;31343;47.520;19.144;2023-05-10T04:14:32;12.40;99.90
45619;DHT22;31343;47.520;19.144;2023-05-10T04:16:57;12.50;99.90
45619;DHT22;31343;47.520;19.144;2023-05-10T04:19:23;12.30;99.90
45619;DHT22;31343;47.520;19.144;2023-05-10T04:21:49;12.40;99.90
45619;DHT22;31343;47.520;19.144;2023-05-10T04:24:15;12.40;99.90
45619;DHT22;31343;47.520;19.144;2023-05-10T04:26:40;12.30;99.90
45619;DHT22;31343;47.520;19.144;2023-05-10T04:29:06;12.40;99.90
45619;DHT22;31343;47.520;19.144;2023-05-10T04:31:32;12.40;99.90
45619;DHT22;31343;47.520;19.144;2023-05-10T04:33:58;12.40;99.90
45619;DHT22;31343;47.520;19.144;2023-05-10T04:36:23;12.30;99.90
45619;DHT22;31343;47.520;19.144;2023-05-10T04:38:49;12.30;99.90
45619;DHT22;31343;47.520;19.144;2023-05-10T04:41:15;12.30;99.90
45619;DHT22;31343;47.520;19.144;2023-05-10T04:43:41;12.40;99.90
45619;DHT22;31343;47.520;19.144;2023-05-10T04:46:07;12.40;99.90
45619;DHT22;31343;47.520;19.144;2023-05-10T04:48:33;12.40;99.90
45619;DHT22;31343;47.520;19.144;2023-05-10T04:50:59;12.50;99.90
45619;DHT22;31343;47.520;19.144;2023-05-10T04:53:25;12.60;99.90
45619;DHT22;31343;47.520;19.144;2023-05-10T04:55:50;12.70;99.90
45619;DHT22;31343;47.520;19.144;2023-05-10T04:58:16;12.70;99.90
45619;DHT22;31343;47.520;19.144;2023-05-10T05:00:42;12.50;99.90
45619;DHT22;31343;47.520;19.144;2023-05-10T05:03:08;12.60;99.90
45619;DHT22;31343;47.520;19.144;2023-05-10T05:05:33;12.70;99.90
45619;DHT22;31343;47.520;19.144;2023-05-10T05:07:59;13.20;99.90
45619;DHT22;31343;47.520;19.144;2023-05-10T05:10:25;13.40;99.90
45619;DHT22;31343;47.520;19.144;2023-05-10T05:12:51;13.90;99.90
45619;DHT22;31343;47.520;19.144;2023-05-10T05:15:17;13.90;99.90
45619;DHT22;31343;47.520;19.144;2023-05-10T05:17:43;14.00;99.90
45619;DHT22;31343;47.520;19.144;2023-05-10T05:20:09;14.10;99.90
45619;DHT22;31343;47.520;19.144;2023-05-10T05:22:38;13.70;99.90
45619;DHT22;31343;47.520;19.144;2023-05-10T05:25:05;14.00;99.90
45619;DHT22;31343;47.520;19.144;2023-05-10T05:27:31;14.10;99.90
45619;DHT22;31343;47.520;19.144;2023-05-10T05:29:57;14.30;99.90
45619;DHT22;31343;47.520;19.144;2023-05-10T05:32:24;15.10;99.90
45619;DHT22;31343;47.520;19.144;2023-05-10T05:34:50;15.70;99.90
45619;DHT22;31343;47.520;19.144;2023-05-10T05:37:18;15.60;99.90
45619;DHT22;31343;47.520;19.144;2023-05-10T05:39:45;15.40;99.90
45619;DHT22;31343;47.520;19.144;2023-05-10T05:42:12;15.00;99.90
45619;DHT22;31343;47.520;19.144;2023-05-10T05:44:38;15.30;99.90
45619;DHT22;31343;47.520;19.144;2023-05-10T05:47:04;16.20;99.90
45619;DHT22;31343;47.520;19.144;2023-05-10T05:49:31;16.90;98.00
45619;DHT22;31343;47.520;19.144;2023-05-10T05:52:04;16.70;97.80
45619;DHT22;31343;47.520;19.144;2023-05-10T05:54:31;17.00;98.20
45619;DHT22;31343;47.520;19.144;2023-05-10T05:56:58;17.90;96.50
45619;DHT22;31343;47.520;19.144;2023-05-10T05:59:24;17.40;96.30
45619;DHT22;31343;47.520;19.144;2023-05-10T06:01:50;17.20;96.30
45619;DHT22;31343;47.520;19.144;2023-05-10T06:04:16;16.70;97.30
45619;DHT22;31343;47.520;19.144;2023-05-10T06:06:42;16.90;97.60
45619;DHT22;31343;47.520;19.144;2023-05-10T06:09:08;16.20;97.60
45619;DHT22;31343;47.520;19.144;2023-05-10T06:11:35;16.10;98.40
45619;DHT22;31343;47.520;19.144;2023-05-10T06:14:02;16.30;97.90
45619;DHT22;31343;47.520;19.144;2023-05-10T06:16:29;16.90;97.30
45619;DHT22;31343;47.520;19.144;2023-05-10T06:18:55;17.30;96.50
45619;DHT22;31343;47.520;19.144;2023-05-10T06:21:21;17.40;96.10
45619;DHT22;31343;47.520;19.144;2023-05-10T06:23:46;17.50;96.20
45619;DHT22;31343;47.520;19.144;2023-05-10T06:26:12;17.70;95.20
45619;DHT22;31343;47.520;19.144;2023-05-10T06:28:39;17.60;95.90
45619;DHT22;31343;47.520;19.144;2023-05-10T06:31:05;17.80;95.70
45619;DHT22;31343;47.520;19.144;2023-05-10T06:33:32;18.30;95.10
45619;DHT22;31343;47.520;19.144;2023-05-10T06:35:58;18.20;94.40
45619;DHT22;31343;47.520;19.144;2023-05-10T06:38:24;18.90;94.20
45619;DHT22;31343;47.520;19.144;2023-05-10T06:40:49;18.60;93.90
45619;DHT22;31343;47.520;19.144;2023-05-10T06:43:15;18.20;94.10
45619;DHT22;31343;47.520;19.144;2023-05-10T06:45:41;18.20;94.30
45619;DHT22;31343;47.520;19.144;2023-05-10T06:48:07;17.60;95.00
45619;DHT22;31343;47.520;19.144;2023-05-10T06:50:33;16.90;96.20
45619;DHT22;31343;47.520;19.144;2023-05-10T06:52:59;17.10;96.50
45619;DHT22;31343;47.520;19.144;2023-05-10T06:55:25;17.80;95.40
45619;DHT22;31343;47.520;19.144;2023-05-10T06:57:51;17.20;95.80
45619;DHT22;31343;47.520;19.144;2023-05-10T07:00:18;17.40;95.80
45619;DHT22;31343;47.520;19.144;2023-05-10T07:02:44;16.60;96.90
45619;DHT22;31343;47.520;19.144;2023-05-10T07:05:10;16.40;97.30
45619;DHT22;31343;47.520;19.144;2023-05-10T07:07:36;16.70;97.70
45619;DHT22;31343;47.520;19.144;2023-05-10T07:10:02;17.50;95.90
45619;DHT22;31343;47.520;19.144;2023-05-10T07:12:28;17.30;96.00
45619;DHT22;31343;47.520;19.144;2023-05-10T07:14:53;18.10;95.20
45619;DHT22;31343;47.520;19.144;2023-05-10T07:17:19;17.40;95.00
45619;DHT22;31343;47.520;19.144;2023-05-10T07:19:45;17.00;96.10
45619;DHT22;31343;47.520;19.144;2023-05-10T07:22:11;17.30;96.20
45619;DHT22;31343;47.520;19.144;2023-05-10T07:24:37;18.00;95.00
45619;DHT22;31343;47.520;19.144;2023-05-10T07:27:04;17.80;95.30
45619;DHT22;31343;47.520;19.144;2023-05-10T07:29:30;17.40;96.10
45619;DHT22;31343;47.520;19.144;2023-05-10T07:31:55;17.40;95.80
45619;DHT22;31343;47.520;19.144;2023-05-10T07:34:21;17.30;96.40
45619;DHT22;31343;47.520;19.144;2023-05-10T07:36:47;17.60;95.80
45619;DHT22;31343;47.520;19.144;2023-05-10T07:39:13;17.30;96.10
45619;DHT22;31343;47.520;19.144;2023-05-10T07:41:39;17.50;95.90
45619;DHT22;31343;47.520;19.144;2023-05-10T07:44:05;17.40;96.20
45619;DHT22;31343;47.520;19.144;2023-05-10T07:46:31;17.70;96.00
45619;DHT22;31343;47.520;19.144;2023-05-10T07:48:57;17.80;95.70
45619;DHT22;31343;47.520;19.144;2023-05-10T07:51:22;17.80;95.40
45619;DHT22;31343;47.520;19.144;2023-05-10T07:53:48;17.20;96.20
45619;DHT22;31343;47.520;19.144;2023-05-10T07:56:41;17.00;96.80
45619;DHT22;31343;47.520;19.144;2023-05-10T07:59:15;17.60;96.20
45619;DHT22;31343;47.520;19.144;2023-05-10T08:01:42;17.90;95.70
45619;DHT22;31343;47.520;19.144;2023-05-10T08:04:08;17.40;96.00
45619;DHT22;31343;47.520;19.144;2023-05-10T08:06:34;17.30;96.20
45619;DHT22;31343;47.520;19.144;2023-05-10T08:09:00;17.20;96.60
45619;DHT22;31343;47.520;19.144;2023-05-10T08:11:26;16.80;96.50
45619;DHT22;31343;47.520;19.144;2023-05-10T08:13:53;17.10;96.80
45619;DHT22;31343;47.520;19.144;2023-05-10T08:16:19;17.70;95.90
45619;DHT22;31343;47.520;19.144;2023-05-10T08:18:46;17.50;95.80
45619;DHT22;31343;47.520;19.144;2023-05-10T08:21:13;17.50;95.50
45619;DHT22;31343;47.520;19.144;2023-05-10T08:23:39;17.90;95.50
45619;DHT22;31343;47.520;19.144;2023-05-10T08:26:05;17.50;95.60
45619;DHT22;31343;47.520;19.144;2023-05-10T08:28:31;17.70;95.30
45619;DHT22;31343;47.520;19.144;2023-05-10T08:30:56;17.70;95.60
45619;DHT22;31343;47.520;19.144;2023-05-10T08:33:22;17.50;95.50
45619;DHT22;31343;47.520;19.144;2023-05-10T08:35:48;17.30;96.10
45619;DHT22;31343;47.520;19.144;2023-05-10T08:38:14;17.00;96.10
45619;DHT22;31343;47.520;19.144;2023-05-10T08:40:42;17.00;95.70
45619;DHT22;31343;47.520;19.144;2023-05-10T08:43:11;16.60;96.90
45619;DHT22;31343;47.520;19.144;2023-05-10T08:45:38;16.60;97.20
45619;DHT22;31343;47.520;19.144;2023-05-10T08:48:10;16.70;96.50
45619;DHT22;31343;47.520;19.144;2023-05-10T08:50:38;16.50;97.20
45619;DHT22;31343;47.520;19.144;2023-05-10T08:53:09;16.90;96.50
45619;DHT22;31343;47.520;19.144;2023-05-10T08:55:36;17.10;95.80
45619;DHT22;31343;47.520;19.144;2023-05-10T08:58:04;17.40;96.20
45619;DHT22;31343;47.520;19.144;2023-05-10T09:00:31;17.40;95.30
45619;DHT22;31343;47.520;19.144;2023-05-10T09:02:58;16.90;96.00
45619;DHT22;31343;47.520;19.144;2023-05-10T09:05:24;16.60;97.30
45619;DHT22;31343;47.520;19.144;2023-05-10T09:07:50;17.10;96.70
45619;DHT22;31343;47.520;19.144;2023-05-10T09:10:16;17.40;96.20
45619;DHT22;31343;47.520;19.144;2023-05-10T09:12:41;17.40;95.70
45619;DHT22;31343;47.520;19.144;2023-05-10T09:15:09;17.10;94.50
45619;DHT22;31343;47.520;19.144;2023-05-10T09:17:38;17.10;95.30
45619;DHT22;31343;47.520;19.144;2023-05-10T09:20:05;17.30;94.90
45619;DHT22;31343;47.520;19.144;2023-05-10T09:22:31;17.10;95.10
45619;DHT22;31343;47.520;19.144;2023-05-10T09:27:34;17.40;94.40
45619;DHT22;31343;47.520;19.144;2023-05-10T09:30:00;17.30;94.00
45619;DHT22;31343;47.520;19.144;2023-05-10T09:32:40;17.50;94.10
45619;DHT22;31343;47.520;19.144;2023-05-10T09:35:10;17.30;94.50
45619;DHT22;31343;47.520;19.144;2023-05-10T09:37:36;17.40;94.70
45619;DHT22;31343;47.520;19.144;2023-05-10T09:40:06;17.80;94.50
45619;DHT22;31343;47.520;19.144;2023-05-10T09:42:34;17.70;94.70
45619;DHT22;31343;47.520;19.144;2023-05-10T09:45:04;17.70;94.40
45619;DHT22;31343;47.520;19.144;2023-05-10T09:47:33;17.90;94.50
45619;DHT22;31343;47.520;19.144;2023-05-10T09:50:00;18.10;93.60
45619;DHT22;31343;47.520;19.144;2023-05-10T09:52:53;17.90;93.80
45619;DHT22;31343;47.520;19.144;2023-05-10T09:55:24;17.50;94.20
45619;DHT22;31343;47.520;19.144;2023-05-10T09:58:00;17.60;94.40
45619;DHT22;31343;47.520;19.144;2023-05-10T10:00:27;18.00;93.60
45619;DHT22;31343;47.520;19.144;2023-05-10T10:02:57;18.20;93.40
45619;DHT22;31343;47.520;19.144;2023-05-10T10:05:34;18.10;93.10
45619;DHT22;31343;47.520;19.144;2023-05-10T10:08:02;18.50;92.80
45619;DHT22;31343;47.520;19.144;2023-05-10T10:10:29;18.20;92.50
45619;DHT22;31343;47.520;19.144;2023-05-10T10:12:56;17.80;92.80
45619;DHT22;31343;47.520;19.144;2023-05-10T10:15:22;17.80;93.30
45619;DHT22;31343;47.520;19.144;2023-05-10T10:17:49;17.50;93.40
45619;DHT22;31343;47.520;19.144;2023-05-10T10:20:15;17.50;93.50
45619;DHT22;31343;47.520;19.144;2023-05-10T10:22:42;17.40;93.70
45619;DHT22;31343;47.520;19.144;2023-05-10T10:25:11;17.50;93.40
45619;DHT22;31343;47.520;19.144;2023-05-10T10:36:00;18.30;91.00
45619;DHT22;31343;47.520;19.144;2023-05-10T10:38:57;18.50;90.90
45619;DHT22;31343;47.520;19.144;2023-05-10T10:41:33;19.10;90.80
45619;DHT22;31343;47.520;19.144;2023-05-10T10:49:52;18.30;90.80
45619;DHT22;31343;47.520;19.144;2023-05-10T10:52:35;18.30;90.50
45619;DHT22;31343;47.520;19.144;2023-05-10T10:57:33;17.90;90.10
45619;DHT22;31343;47.520;19.144;2023-05-10T11:03:12;18.20;90.70
45619;DHT22;31343;47.520;19.144;2023-05-10T11:05:41;18.50;89.60
45619;DHT22;31343;47.520;19.144;2023-05-10T11:08:34;18.50;90.00
45619;DHT22;31343;47.520;19.144;2023-05-10T11:13:32;18.20;90.20
45619;DHT22;31343;47.520;19.144;2023-05-10T11:16:22;17.90;90.50
45619;DHT22;31343;47.520;19.144;2023-05-10T11:19:04;18.30;90.50
45619;DHT22;31343;47.520;19.144;2023-05-10T11:21:31;18.90;90.00
45619;DHT22;31343;47.520;19.144;2023-05-10T11:23:59;19.50;87.10
45619;DHT22;31343;47.520;19.144;2023-05-10T11:26:30;19.50;87.00
45619;DHT22;31343;47.520;19.144;2023-05-10T11:28:56;20.60;84.10
45619;DHT22;31343;47.520;19.144;2023-05-10T11:31:24;21.10;82.60
45619;DHT22;31343;47.520;19.144;2023-05-10T11:33:57;20.60;83.00
45619;DHT22;31343;47.520;19.144;2023-05-10T11:36:35;20.20;84.50
45619;DHT22;31343;47.520;19.144;2023-05-10T11:39:02;19.80;83.10
45619;DHT22;31343;47.520;19.144;2023-05-10T11:41:29;19.30;83.10
45619;DHT22;31343;47.520;19.144;2023-05-10T11:43:56;19.00;84.20
45619;DHT22;31343;47.520;19.144;2023-05-10T11:46:24;18.80;85.80
45619;DHT22;31343;47.520;19.144;2023-05-10T11:48:51;18.60;86.10
45619;DHT22;31343;47.520;19.144;2023-05-10T11:51:22;18.40;86.50
45619;DHT22;31343;47.520;19.144;2023-05-10T11:53:49;18.60;86.80
45619;DHT22;31343;47.520;19.144;2023-05-10T11:56:16;18.60;86.90
45619;DHT22;31343;47.520;19.144;2023-05-10T11:58:41;19.00;86.30
45619;DHT22;31343;47.520;19.144;2023-05-10T12:01:08;18.80;86.10
45619;DHT22;31343;47.520;19.144;2023-05-10T12:03:34;19.20;84.70
45619;DHT22;31343;47.520;19.144;2023-05-10T12:06:01;19.30;83.70
45619;DHT22;31343;47.520;19.144;2023-05-10T12:08:29;19.20;84.30
45619;DHT22;31343;47.520;19.144;2023-05-10T12:11:06;18.70;86.00
45619;DHT22;31343;47.520;19.144;2023-05-10T12:13:32;18.60;85.10
45619;DHT22;31343;47.520;19.144;2023-05-10T12:15:58;18.60;84.30
45619;DHT22;31343;47.520;19.144;2023-05-10T12:18:24;18.80;83.50
45619;DHT22;31343;47.520;19.144;2023-05-10T12:20:53;18.90;83.70
45619;DHT22;31343;47.520;19.144;2023-05-10T12:23:19;19.00;84.60
45619;DHT22;31343;47.520;19.144;2023-05-10T12:25:46;19.10;84.80
45619;DHT22;31343;47.520;19.144;2023-05-10T12:28:12;19.00;84.30
45619;DHT22;31343;47.520;19.144;2023-05-10T12:30:38;18.80;85.10
45619;DHT22;31343;47.520;19.144;2023-05-10T12:33:13;18.90;85.50
45619;DHT22;31343;47.520;19.144;2023-05-10T12:35:50;18.80;85.20
45619;DHT22;31343;47.520;19.144;2023-05-10T12:38:32;18.70;84.90
45619;DHT22;31343;47.520;19.144;2023-05-10T12:41:00;18.90;85.50
45619;DHT22;31343;47.520;19.144;2023-05-10T12:43:28;19.00;85.60
45619;DHT22;31343;47.520;19.144;2023-05-10T12:45:54;18.70;84.80
45619;DHT22;31343;47.520;19.144;2023-05-10T12:48:20;18.80;85.80
45619;DHT22;31343;47.520;19.144;2023-05-10T12:50:46;18.80;86.10
45619;DHT22;31343;47.520;19.144;2023-05-10T12:53:13;19.10;86.20
45619;DHT22;31343;47.520;19.144;2023-05-10T12:55:41;19.10;86.00
45619;DHT22;31343;47.520;19.144;2023-05-10T12:58:07;19.00;86.30
45619;DHT22;31343;47.520;19.144;2023-05-10T13:00:33;19.20;86.40
45619;DHT22;31343;47.520;19.144;2023-05-10T13:02:58;19.20;85.30
45619;DHT22;31343;47.520;19.144;2023-05-10T13:05:24;19.10;84.30
45619;DHT22;31343;47.520;19.144;2023-05-10T13:07:50;19.10;84.30
45619;DHT22;31343;47.520;19.144;2023-05-10T13:10:16;19.00;83.00
45619;DHT22;31343;47.520;19.144;2023-05-10T13:12:41;19.10;83.00
45619;DHT22;31343;47.520;19.144;2023-05-10T13:15:07;19.10;81.10
45619;DHT22;31343;47.520;19.144;2023-05-10T13:17:33;19.30;81.20
45619;DHT22;31343;47.520;19.144;2023-05-10T13:20:00;19.10;80.70
45619;DHT22;31343;47.520;19.144;2023-05-10T13:22:26;19.30;81.50
45619;DHT22;31343;47.520;19.144;2023-05-10T13:24:52;19.30;82.60
45619;DHT22;31343;47.520;19.144;2023-05-10T13:27:17;19.40;83.30
45619;DHT22;31343;47.520;19.144;2023-05-10T13:29:43;19.50;82.60
45619;DHT22;31343;47.520;19.144;2023-05-10T13:32:09;19.70;82.80
45619;DHT22;31343;47.520;19.144;2023-05-10T13:37:19;19.60;81.80
45619;DHT22;31343;47.520;19.144;2023-05-10T13:39:45;19.60;81.90
45619;DHT22;31343;47.520;19.144;2023-05-10T13:42:12;19.90;81.80
45619;DHT22;31343;47.520;19.144;2023-05-10T13:44:37;19.80;80.20
45619;DHT22;31343;47.520;19.144;2023-05-10T13:47:05;19.70;79.90
45619;DHT22;31343;47.520;19.144;2023-05-10T13:49:33;19.70;80.50
45619;DHT22;31343;47.520;19.144;2023-05-10T13:52:00;19.80;79.70
45619;DHT22;31343;47.520;19.144;2023-05-10T13:54:34;19.80;79.90
45619;DHT22;31343;47.520;19.144;2023-05-10T13:57:05;19.80;80.00
45619;DHT22;31343;47.520;19.144;2023-05-10T13:59:32;19.80;79.60
45619;DHT22;31343;47.520;19.144;2023-05-10T14:01:59;19.90;79.80
45619;DHT22;31343;47.520;19.144;2023-05-10T14:04:25;20.00;79.00
45619;DHT22;31343;47.520;19.144;2023-05-10T14:06:51;19.70;78.40
45619;DHT22;31343;47.520;19.144;2023-05-10T14:09:18;19.70;78.10
45619;DHT22;31343;47.520;19.144;2023-05-10T14:11:45;19.80;78.90
45619;DHT22;31343;47.520;19.144;2023-05-10T14:14:12;19.90;78.70
45619;DHT22;31343;47.520;19.144;2023-05-10T14:16:42;19.80;77.60
45619;DHT22;31343;47.520;19.144;2023-05-10T14:19:08;19.90;78.50
45619;DHT22;31343;47.520;19.144;2023-05-10T14:21:35;20.10;76.60
45619;DHT22;31343;47.520;19.144;2023-05-10T14:24:00;20.00;75.40
45619;DHT22;31343;47.520;19.144;2023-05-10T14:26:27;19.70;75.10
45619;DHT22;31343;47.520;19.144;2023-05-10T14:28:53;19.50;75.00
45619;DHT22;31343;47.520;19.144;2023-05-10T14:31:20;19.40;75.50
45619;DHT22;31343;47.520;19.144;2023-05-10T14:33:46;19.50;74.70
45619;DHT22;31343;47.520;19.144;2023-05-10T14:36:12;19.60;74.90
45619;DHT22;31343;47.520;19.144;2023-05-10T14:38:39;19.80;74.40
45619;DHT22;31343;47.520;19.144;2023-05-10T14:41:05;19.60;75.20
45619;DHT22;31343;47.520;19.144;2023-05-10T14:43:30;19.50;77.30
45619;DHT22;31343;47.520;19.144;2023-05-10T14:45:57;19.30;78.90
45619;DHT22;31343;47.520;19.144;2023-05-10T14:48:23;19.20;79.50
45619;DHT22;31343;47.520;19.144;2023-05-10T14:50:49;19.40;78.70
45619;DHT22;31343;47.520;19.144;2023-05-10T14:53:15;19.40;78.30
45619;DHT22;31343;47.520;19.144;2023-05-10T14:55:41;19.30;78.40
45619;DHT22;31343;47.520;19.144;2023-05-10T14:58:07;19.30;77.90
45619;DHT22;31343;47.520;19.144;2023-05-10T15:00:33;19.20;77.20
45619;DHT22;31343;47.520;19.144;2023-05-10T15:02:59;18.90;77.40
45619;DHT22;31343;47.520;19.144;2023-05-10T15:05:24;18.80;77.70
45619;DHT22;31343;47.520;19.144;2023-05-10T15:07:50;18.60;77.70
45619;DHT22;31343;47.520;19.144;2023-05-10T15:10:16;18.60;77.60
45619;DHT22;31343;47.520;19.144;2023-05-10T15:12:43;18.70;77.40
45619;DHT22;31343;47.520;19.144;2023-05-10T15:15:08;18.70;76.60
45619;DHT22;31343;47.520;19.144;2023-05-10T15:17:34;18.60;77.20
45619;DHT22;31343;47.520;19.144;2023-05-10T15:20:01;18.60;77.10
45619;DHT22;31343;47.520;19.144;2023-05-10T15:22:29;18.70;77.30
45619;DHT22;31343;47.520;19.144;2023-05-10T15:24:56;18.70;77.30
45619;DHT22;31343;47.520;19.144;2023-05-10T15:27:22;18.80;77.20
45619;DHT22;31343;47.520;19.144;2023-05-10T15:29:48;18.80;77.20
45619;DHT22;31343;47.520;19.144;2023-05-10T15:32:14;18.80;77.10
45619;DHT22;31343;47.520;19.144;2023-05-10T15:34:40;18.80;78.20
45619;DHT22;31343;47.520;19.144;2023-05-10T15:37:06;18.60;78.90
45619;DHT22;31343;47.520;19.144;2023-05-10T15:39:33;18.70;78.60
45619;DHT22;31343;47.520;19.144;2023-05-10T15:41:59;18.90;78.80
45619;DHT22;31343;47.520;19.144;2023-05-10T15:44:24;19.00;78.30
45619;DHT22;31343;47.520;19.144;2023-05-10T15:46:50;19.10;78.50
45619;DHT22;31343;47.520;19.144;2023-05-10T15:49:16;19.10;79.10
45619;DHT22;31343;47.520;19.144;2023-05-10T15:51:42;19.00;79.60
45619;DHT22;31343;47.520;19.144;2023-05-10T15:54:08;19.00;80.50
45619;DHT22;31343;47.520;19.144;2023-05-10T15:56:34;18.90;80.70